createdAt,value
2023-04-12T00:00:48.431Z,57.93
2023-04-12T00:03:20.377Z,58.91
2023-04-12T00:05:54.649Z,57.63
2023-04-12T00:08:33.648Z,58.08
2023-04-12T00:11:02.481Z,58.83
2023-04-12T00:13:30.685Z,57.53
2023-04-12T00:15:58.210Z,58.30
2023-04-12T00:18:26.052Z,57.45
2023-04-12T00:20:55.661Z,58.07
2023-04-12T00:23:23.069Z,57.85
2023-04-12T00:25:50.679Z,58.02
2023-04-12T00:28:18.834Z,56.72
2023-04-12T00:30:46.268Z,55.46
2023-04-12T00:33:13.672Z,55.52
2023-04-12T00:35:41.333Z,57.00
2023-04-12T00:38:10.816Z,56.61
2023-04-12T00:40:42.714Z,55.30
2023-04-12T00:43:15.628Z,56.91
2023-04-12T00:45:44.428Z,58.59
2023-04-12T00:48:12.752Z,60.54
2023-04-12T00:50:47.543Z,57.84
2023-04-12T00:53:15.892Z,58.83
2023-04-12T00:55:45.339Z,57.57
2023-04-12T00:58:14.355Z,59.79
2023-04-12T01:00:44.862Z,57.73
2023-04-12T01:03:13.843Z,59.32
2023-04-12T01:05:49.257Z,60.14
2023-04-12T01:08:28.636Z,59.04
2023-04-12T01:11:05.480Z,60.26
2023-04-12T01:13:42.630Z,59.00
2023-04-12T01:16:29.884Z,58.73
2023-04-12T01:19:03.766Z,59.07
2023-04-12T01:21:42.592Z,58.55
2023-04-12T01:24:26.722Z,56.56
2023-04-12T01:26:57.733Z,57.88
2023-04-12T01:29:27.730Z,58.47
2023-04-12T01:31:59.836Z,59.81
2023-04-12T01:34:30.313Z,60.53
2023-04-12T01:37:01.629Z,59.73
2023-04-12T01:39:33.593Z,59.37
2023-04-12T01:42:03.382Z,59.10
2023-04-12T01:44:30.877Z,58.38
2023-04-12T01:46:58.848Z,58.99
2023-04-12T01:49:32.354Z,57.74
2023-04-12T01:52:12.982Z,60.11
2023-04-12T01:54:42.988Z,59.50
2023-04-12T01:57:11.029Z,60.40
2023-04-12T01:59:43.642Z,60.45
2023-04-12T02:02:12.210Z,60.62
2023-04-12T02:04:40.851Z,61.21
2023-04-12T02:07:09.453Z,63.20
2023-04-12T02:09:40.025Z,64.14
2023-04-12T02:12:08.694Z,63.04
2023-04-12T02:14:37.095Z,61.84
2023-04-12T02:17:05.576Z,62.01
2023-04-12T02:19:33.345Z,62.21
2023-04-12T02:22:02.352Z,60.71
2023-04-12T02:24:30.072Z,60.46
2023-04-12T02:26:59.155Z,62.37
2023-04-12T02:29:27.421Z,61.48
2023-04-12T02:31:54.886Z,60.90
2023-04-12T02:34:23.165Z,61.63
2023-04-12T02:36:51.223Z,60.25
2023-04-12T02:39:19.018Z,58.41
2023-04-12T02:41:47.318Z,58.35
2023-04-12T02:44:15.955Z,57.75
2023-04-12T02:46:44.335Z,56.34
2023-04-12T02:49:12.052Z,55.67
2023-04-12T02:51:40.767Z,56.86
2023-04-12T02:54:08.431Z,55.88
2023-04-12T02:56:37.051Z,53.98
2023-04-12T02:59:06.863Z,54.73
2023-04-12T03:01:35.087Z,54.17
2023-04-12T03:04:04.001Z,54.30
2023-04-12T03:06:32.284Z,55.47
2023-04-12T03:09:00.420Z,55.08
2023-04-12T03:11:28.013Z,55.31
2023-04-12T03:13:56.173Z,54.32
2023-04-12T03:16:25.787Z,53.68
2023-04-12T03:18:54.032Z,53.08
2023-04-12T03:21:22.308Z,53.26
2023-04-12T03:23:49.787Z,54.03
2023-04-12T03:26:20.659Z,53.54
2023-04-12T03:28:49.439Z,53.63
2023-04-12T03:31:21.022Z,54.98
2023-04-12T03:33:48.986Z,55.09
2023-04-12T03:36:17.531Z,52.94
2023-04-12T03:39:05.243Z,52.01
2023-04-12T03:41:33.746Z,51.58
2023-04-12T03:44:02.665Z,53.42
2023-04-12T03:46:31.327Z,52.38
2023-04-12T03:48:59.667Z,54.52
2023-04-12T03:51:27.378Z,54.84
2023-04-12T03:53:55.732Z,55.09
2023-04-12T03:56:23.518Z,55.01
2023-04-12T03:58:51.401Z,55.44
2023-04-12T04:01:19.935Z,55.24
2023-04-12T04:03:48.326Z,55.52
2023-04-12T04:06:17.559Z,55.47
2023-04-12T04:08:45.947Z,56.64
2023-04-12T04:11:14.363Z,58.77
2023-04-12T04:13:42.371Z,57.99
2023-04-12T04:16:11.063Z,57.11
2023-04-12T04:18:39.586Z,57.94
2023-04-12T04:21:07.868Z,57.68
2023-04-12T04:23:39.175Z,55.26
2023-04-12T04:26:10.490Z,55.92
2023-04-12T04:28:39.649Z,53.60
2023-04-12T04:31:07.952Z,56.71
2023-04-12T04:33:36.741Z,55.08
2023-04-12T04:36:04.809Z,54.68
2023-04-12T04:38:33.812Z,56.42
2023-04-12T04:41:05.363Z,53.39
2023-04-12T04:43:35.284Z,51.94
2023-04-12T04:46:03.149Z,51.83
2023-04-12T04:48:30.788Z,52.87
2023-04-12T04:51:00.648Z,55.69
2023-04-12T04:53:28.053Z,51.38
2023-04-12T04:56:01.086Z,51.71
2023-04-12T04:58:30.350Z,53.87
2023-04-12T05:00:59.873Z,52.47
2023-04-12T05:03:30.955Z,51.84
2023-04-12T05:06:01.140Z,53.20
2023-04-12T05:08:28.894Z,52.75
2023-04-12T05:10:57.203Z,53.48
2023-04-12T05:13:25.943Z,52.37
2023-04-12T05:15:53.844Z,51.29
2023-04-12T05:18:21.291Z,49.15
2023-04-12T05:20:49.333Z,46.87
2023-04-12T05:23:17.448Z,46.32
2023-04-12T05:25:50.103Z,46.62
2023-04-12T05:28:18.034Z,48.29
2023-04-12T05:30:46.223Z,46.28
2023-04-12T05:33:14.091Z,48.21
2023-04-12T05:35:43.198Z,49.75
2023-04-12T05:38:11.820Z,49.73
2023-04-12T05:40:39.465Z,52.24
2023-04-12T05:43:08.574Z,49.88
2023-04-12T05:45:36.267Z,52.49
2023-04-12T05:48:03.972Z,51.48
2023-04-12T05:50:32.040Z,49.47
2023-04-12T05:53:01.584Z,47.31
2023-04-12T05:55:30.023Z,44.15
2023-04-12T05:57:58.674Z,47.47
2023-04-12T06:00:27.788Z,46.25
2023-04-12T06:02:57.128Z,47.37
2023-04-12T06:05:24.996Z,48.18
2023-04-12T06:07:52.451Z,48.86
2023-04-12T06:10:20.229Z,49.22
2023-04-12T06:12:48.752Z,49.08
2023-04-12T06:15:16.354Z,50.53
2023-04-12T06:17:45.230Z,51.66
2023-04-12T06:20:13.005Z,52.04
2023-04-12T06:22:40.438Z,52.39
2023-04-12T06:25:08.565Z,51.10
2023-04-12T06:27:36.323Z,52.08
2023-04-12T06:30:04.253Z,53.00
2023-04-12T06:32:32.434Z,52.84
2023-04-12T06:35:00.670Z,51.86
2023-04-12T06:37:28.283Z,52.16
2023-04-12T06:39:56.015Z,53.28
2023-04-12T06:42:23.469Z,52.79
2023-04-12T06:44:50.864Z,52.25
2023-04-12T06:47:18.519Z,52.78
2023-04-12T06:49:45.985Z,51.14
2023-04-12T06:52:13.366Z,50.07
2023-04-12T06:54:41.918Z,49.73
2023-04-12T06:57:11.237Z,49.09
2023-04-12T06:59:38.781Z,49.64
2023-04-12T07:02:07.861Z,49.72
2023-04-12T07:04:35.341Z,49.12
2023-04-12T07:07:02.702Z,48.29
2023-04-12T07:09:33.515Z,49.05
2023-04-12T07:12:02.275Z,49.80
2023-04-12T07:14:30.032Z,48.64
2023-04-12T07:16:57.444Z,48.46
2023-04-12T07:19:25.072Z,48.82
2023-04-12T07:21:52.739Z,48.63
2023-04-12T07:24:20.123Z,47.92
2023-04-12T07:26:48.330Z,48.40
2023-04-12T07:29:17.339Z,47.16
2023-04-12T07:31:45.679Z,49.29
2023-04-12T07:34:13.238Z,48.38
2023-04-12T07:36:40.985Z,47.52
2023-04-12T07:39:11.968Z,46.66
2023-04-12T07:41:39.656Z,48.42
2023-04-12T07:44:07.331Z,48.41
2023-04-12T07:46:34.825Z,47.68
2023-04-12T07:49:02.252Z,48.02
2023-04-12T07:51:30.050Z,49.19
2023-04-12T07:53:57.598Z,48.97
2023-04-12T07:56:25.669Z,46.95
2023-04-12T07:58:53.320Z,46.66
2023-04-12T08:01:20.828Z,45.43
2023-04-12T08:03:48.534Z,45.28
2023-04-12T08:06:17.446Z,45.96
2023-04-12T08:08:45.053Z,44.39
2023-04-12T08:11:12.722Z,42.77
2023-04-12T08:13:40.114Z,43.91
2023-04-12T08:16:08.995Z,42.35
2023-04-12T08:18:36.810Z,41.99
2023-04-12T08:21:04.350Z,43.82
2023-04-12T08:23:31.775Z,42.73
2023-04-12T08:26:03.776Z,40.89
2023-04-12T08:28:31.486Z,40.85
2023-04-12T08:30:59.653Z,39.79
2023-04-12T08:33:27.531Z,38.37
2023-04-12T08:35:55.310Z,38.63
2023-04-12T08:38:30.645Z,38.19
2023-04-12T08:41:09.304Z,38.00
2023-04-12T08:43:38.404Z,38.87
2023-04-12T08:46:07.609Z,38.21
2023-04-12T08:48:36.208Z,38.48
2023-04-12T08:51:04.514Z,38.38
2023-04-12T08:53:33.599Z,37.39
2023-04-12T08:56:01.267Z,38.50
2023-04-12T08:58:29.874Z,38.10
2023-04-12T09:00:57.610Z,36.76
2023-04-12T09:03:25.492Z,35.05
2023-04-12T09:05:53.270Z,34.75
2023-04-12T09:08:20.668Z,34.72
2023-04-12T09:10:48.076Z,35.73
2023-04-12T09:13:15.732Z,35.38
2023-04-12T09:15:50.389Z,34.39
2023-04-12T09:18:18.834Z,35.23
2023-04-12T09:20:46.539Z,32.93
2023-04-12T09:23:21.700Z,32.33
2023-04-12T09:25:52.773Z,31.78
2023-04-12T09:28:27.527Z,32.33
2023-04-12T09:30:56.624Z,32.28
2023-04-12T09:33:34.396Z,31.76
2023-04-12T09:36:03.235Z,31.96
2023-04-12T09:38:31.450Z,33.08
2023-04-12T09:41:21.551Z,32.01
2023-04-12T09:43:51.459Z,32.04
2023-04-12T09:46:18.926Z,30.34
2023-04-12T09:48:51.533Z,31.14
2023-04-12T09:51:36.443Z,30.72
2023-04-12T09:54:06.458Z,30.23
2023-04-12T09:56:35.923Z,30.21
2023-04-12T09:59:05.033Z,28.76
2023-04-12T10:01:38.189Z,28.96
2023-04-12T10:04:07.737Z,28.53
2023-04-12T10:06:37.115Z,29.56
2023-04-12T10:09:05.045Z,29.98
2023-04-12T10:11:34.228Z,29.00
2023-04-12T10:14:03.001Z,28.13
2023-04-12T10:16:31.164Z,28.23
2023-04-12T10:19:02.246Z,28.25
2023-04-12T10:21:30.284Z,27.02
2023-04-12T10:23:58.245Z,27.40
2023-04-12T10:26:26.594Z,26.91
2023-04-12T10:29:29.243Z,26.98
2023-04-12T10:31:58.709Z,26.54
2023-04-12T10:34:30.462Z,26.92
2023-04-12T10:37:01.866Z,26.41
2023-04-12T10:39:42.987Z,25.16
2023-04-12T10:42:25.296Z,25.45
2023-04-12T10:44:54.904Z,24.83
2023-04-12T10:47:54.614Z,26.13
2023-04-12T10:50:30.124Z,26.25
2023-04-12T10:53:12.602Z,25.91
2023-04-12T10:55:41.210Z,24.80
2023-04-12T10:58:10.031Z,23.31
2023-04-12T11:01:06.734Z,23.53
2023-04-12T11:03:34.677Z,23.30
2023-04-12T11:06:20.012Z,24.80
2023-04-12T11:08:56.498Z,24.91
2023-04-12T11:11:25.535Z,25.15
2023-04-12T11:13:57.205Z,25.68
2023-04-12T11:16:24.599Z,25.45
2023-04-12T11:18:52.123Z,26.55
2023-04-12T11:21:20.359Z,25.93
2023-04-12T11:23:47.974Z,24.64
2023-04-12T11:26:20.438Z,25.83
2023-04-12T11:28:50.233Z,25.31
2023-04-12T11:31:20.280Z,24.94
2023-04-12T11:33:47.962Z,24.56
2023-04-12T11:36:15.412Z,25.23
2023-04-12T11:38:45.952Z,25.22
2023-04-12T11:41:14.792Z,25.85
2023-04-12T11:43:42.662Z,24.96
2023-04-12T11:46:10.567Z,25.36
2023-04-12T11:48:40.975Z,23.47
2023-04-12T11:51:21.864Z,23.62
2023-04-12T11:53:53.005Z,25.70
2023-04-12T11:56:20.416Z,25.99
2023-04-12T11:58:48.080Z,25.26
2023-04-12T12:01:16.202Z,26.96
2023-04-12T12:03:44.252Z,24.73
2023-04-12T12:06:12.761Z,22.93
2023-04-12T12:08:40.642Z,24.45
2023-04-12T12:11:08.977Z,24.58
2023-04-12T12:13:52.934Z,25.21
2023-04-12T12:16:25.742Z,25.03
2023-04-12T12:18:53.386Z,25.67
2023-04-12T12:21:21.754Z,25.38
2023-04-12T12:23:49.720Z,25.07
2023-04-12T12:26:28.275Z,24.25
2023-04-12T12:28:57.613Z,26.27
2023-04-12T12:31:30.729Z,27.73
2023-04-12T12:34:02.665Z,27.20
2023-04-12T12:36:33.693Z,26.97
2023-04-12T12:39:12.362Z,26.51
2023-04-12T12:41:40.562Z,24.48
2023-04-12T12:44:08.926Z,25.09
2023-04-12T12:46:51.912Z,25.83
2023-04-12T12:49:23.188Z,25.77
2023-04-12T12:51:50.719Z,25.02
2023-04-12T12:54:32.205Z,25.16
2023-04-12T12:57:05.802Z,25.50
2023-04-12T12:59:33.180Z,26.27
2023-04-12T13:02:00.738Z,26.17
2023-04-12T13:04:28.793Z,25.51
2023-04-12T13:06:56.361Z,25.62
2023-04-12T13:09:23.769Z,26.33
2023-04-12T13:11:51.671Z,26.53
2023-04-12T13:14:19.088Z,26.49
2023-04-12T13:16:48.621Z,25.96
2023-04-12T13:19:16.477Z,24.85
2023-04-12T13:21:43.897Z,25.82
2023-04-12T13:24:11.272Z,25.42
2023-04-12T13:26:39.106Z,26.75
2023-04-12T13:29:06.621Z,26.23
2023-04-12T13:31:34.060Z,26.50
2023-04-12T13:34:01.813Z,24.67
2023-04-12T13:36:29.263Z,25.40
2023-04-12T13:38:56.899Z,25.34
2023-04-12T13:41:24.724Z,25.16
2023-04-12T13:43:52.114Z,24.69
2023-04-12T13:46:19.783Z,23.48
2023-04-12T13:48:47.465Z,24.06
2023-04-12T13:51:14.860Z,24.59
2023-04-12T13:53:42.305Z,24.18
2023-04-12T13:56:11.816Z,23.99
2023-04-12T13:58:41.766Z,24.58
2023-04-12T14:01:09.918Z,24.51
2023-04-12T14:03:37.678Z,23.76
2023-04-12T14:06:05.931Z,23.53
2023-04-12T14:08:34.089Z,24.91
2023-04-12T14:11:03.157Z,25.33
2023-04-12T14:13:30.730Z,24.07
2023-04-12T14:15:58.238Z,23.71
2023-04-12T14:18:26.017Z,25.10
2023-04-12T14:20:54.737Z,24.28
2023-04-12T14:23:24.895Z,23.30
2023-04-12T14:25:52.630Z,22.69
2023-04-12T14:28:21.647Z,22.76
2023-04-12T14:30:51.053Z,23.34
2023-04-12T14:33:18.953Z,23.21
2023-04-12T14:35:46.595Z,23.13
2023-04-12T14:38:14.271Z,22.40
2023-04-12T14:40:41.955Z,22.15
2023-04-12T14:43:09.387Z,21.98
2023-04-12T14:45:37.527Z,22.43
2023-04-12T14:48:05.299Z,22.34
2023-04-12T14:50:33.462Z,22.34
2023-04-12T14:53:00.986Z,21.76
2023-04-12T14:55:28.702Z,21.69
2023-04-12T14:57:56.122Z,22.06
2023-04-12T15:00:23.664Z,22.53
2023-04-12T15:02:51.526Z,21.45
2023-04-12T15:05:19.396Z,21.66
2023-04-12T15:07:47.909Z,21.87
2023-04-12T15:10:18.810Z,22.57
2023-04-12T15:12:46.609Z,22.67
2023-04-12T15:15:14.121Z,22.45
2023-04-12T15:17:41.845Z,21.95
2023-04-12T15:20:09.663Z,21.63
2023-04-12T15:22:37.743Z,21.70
2023-04-12T15:25:06.724Z,21.16
2023-04-12T15:27:34.209Z,20.41
2023-04-12T15:30:10.935Z,20.64
2023-04-12T15:32:41.404Z,20.82
2023-04-12T15:35:25.426Z,20.79
2023-04-12T15:37:55.467Z,20.40
2023-04-12T15:40:23.251Z,20.86
2023-04-12T15:42:50.646Z,19.90
2023-04-12T15:45:18.331Z,19.84
2023-04-12T15:47:46.188Z,19.10
2023-04-12T15:50:14.258Z,19.88
2023-04-12T15:52:44.225Z,20.52
2023-04-12T15:55:12.029Z,20.41
2023-04-12T15:57:39.724Z,20.45
2023-04-12T16:00:21.020Z,21.34
2023-04-12T16:02:57.430Z,20.74
2023-04-12T16:05:26.238Z,21.00
2023-04-12T16:07:54.412Z,20.84
2023-04-12T16:10:22.335Z,21.47
2023-04-12T16:12:51.874Z,21.47
2023-04-12T16:15:20.601Z,21.34
2023-04-12T16:17:49.132Z,21.07
2023-04-12T16:20:17.292Z,21.19
2023-04-12T16:22:45.919Z,20.96
2023-04-12T16:25:13.338Z,21.12
2023-04-12T16:27:41.312Z,20.52
2023-04-12T16:30:10.603Z,21.07
2023-04-12T16:32:38.270Z,21.15
2023-04-12T16:35:06.214Z,20.69
2023-04-12T16:37:34.511Z,20.65
2023-04-12T16:40:02.194Z,20.52
2023-04-12T16:42:31.871Z,20.80
2023-04-12T16:44:59.725Z,21.47
2023-04-12T16:47:27.252Z,21.35
2023-04-12T16:49:54.870Z,21.63
2023-04-12T16:52:23.287Z,21.53
2023-04-12T16:54:50.996Z,21.81
2023-04-12T16:57:18.521Z,22.19
2023-04-12T16:59:46.326Z,21.97
2023-04-12T17:02:14.535Z,22.08
2023-04-12T17:04:42.165Z,22.05
2023-04-12T17:07:10.471Z,22.03
2023-04-12T17:09:38.089Z,22.33
2023-04-12T17:12:06.763Z,23.18
2023-04-12T17:14:34.601Z,22.97
2023-04-12T17:17:03.815Z,22.99
2023-04-12T17:19:33.329Z,23.79
2023-04-12T17:22:01.102Z,24.46
2023-04-12T17:24:29.239Z,23.64
2023-04-12T17:26:57.347Z,23.77
2023-04-12T17:29:25.529Z,24.00
2023-04-12T17:31:55.024Z,24.31
2023-04-12T17:34:22.851Z,24.98
2023-04-12T17:36:50.755Z,25.33
2023-04-12T17:39:18.359Z,25.40
2023-04-12T17:41:46.975Z,25.46
2023-04-12T17:44:14.879Z,25.49
2023-04-12T17:46:43.551Z,26.11
2023-04-12T17:49:11.104Z,26.07
2023-04-12T17:51:38.922Z,26.06
2023-04-12T17:54:06.503Z,26.47
2023-04-12T17:56:33.926Z,26.65
2023-04-12T17:59:02.564Z,27.50
2023-04-12T18:01:31.635Z,27.19
2023-04-12T18:04:02.621Z,26.91
2023-04-12T18:06:31.651Z,26.96
2023-04-12T18:08:59.599Z,27.14
2023-04-12T18:11:27.528Z,27.09
2023-04-12T18:13:55.220Z,27.35
2023-04-12T18:16:23.297Z,27.55
2023-04-12T18:18:50.835Z,27.58
2023-04-12T18:21:21.347Z,28.50
2023-04-12T18:23:49.332Z,29.76
2023-04-12T18:26:17.057Z,29.58
2023-04-12T18:28:44.471Z,30.05
2023-04-12T18:31:12.503Z,30.35
2023-04-12T18:33:39.941Z,29.78
2023-04-12T18:36:07.667Z,29.29
2023-04-12T18:38:36.195Z,29.82
2023-04-12T18:41:06.021Z,30.44
2023-04-12T18:43:33.428Z,30.89
2023-04-12T18:46:01.499Z,31.39
2023-04-12T18:48:30.322Z,32.46
2023-04-12T18:50:59.402Z,32.38
2023-04-12T18:53:27.201Z,32.48
2023-04-12T18:55:54.852Z,32.32
2023-04-12T18:58:23.584Z,33.05
2023-04-12T19:00:51.733Z,32.82
2023-04-12T19:03:19.259Z,32.62
2023-04-12T19:05:46.818Z,32.46
2023-04-12T19:08:15.186Z,32.39
2023-04-12T19:10:42.692Z,32.68
2023-04-12T19:13:10.152Z,32.53
2023-04-12T19:15:38.324Z,32.53
2023-04-12T19:18:06.176Z,31.98
2023-04-12T19:20:33.891Z,32.45
2023-04-12T19:23:02.187Z,31.65
2023-04-12T19:25:31.626Z,32.88
2023-04-12T19:28:00.512Z,31.92
2023-04-12T19:30:32.066Z,32.64
2023-04-12T19:32:59.933Z,32.32
2023-04-12T19:35:32.660Z,32.72
2023-04-12T19:38:00.107Z,33.14
2023-04-12T19:40:29.828Z,33.46
2023-04-12T19:42:58.444Z,33.65
2023-04-12T19:45:27.932Z,34.64
2023-04-12T19:47:55.957Z,33.32
2023-04-12T19:50:23.533Z,33.63
2023-04-12T19:52:51.788Z,33.57
2023-04-12T19:55:21.546Z,33.72
2023-04-12T19:57:49.133Z,33.69
2023-04-12T20:00:20.650Z,34.26
2023-04-12T20:02:49.454Z,34.36
2023-04-12T20:05:17.150Z,34.45
2023-04-12T20:07:44.589Z,34.49
2023-04-12T20:10:13.392Z,33.94
2023-04-12T20:12:41.369Z,34.47
2023-04-12T20:15:11.735Z,33.45
2023-04-12T20:17:48.455Z,33.83
2023-04-12T20:20:16.083Z,33.52
2023-04-12T20:22:46.044Z,33.46
2023-04-12T20:25:14.687Z,33.51
2023-04-12T20:27:44.676Z,33.35
2023-04-12T20:30:16.929Z,34.39
2023-04-12T20:32:44.545Z,34.99
2023-04-12T20:35:15.312Z,34.49
2023-04-12T20:37:43.325Z,34.40
2023-04-12T20:40:11.519Z,34.16
2023-04-12T20:42:39.305Z,33.37
2023-04-12T20:45:07.693Z,33.42
2023-04-12T20:47:35.631Z,33.46
2023-04-12T20:50:04.579Z,33.57
2023-04-12T20:52:32.232Z,33.77
2023-04-12T20:54:59.644Z,33.92
2023-04-12T20:57:27.609Z,34.34
2023-04-12T20:59:55.418Z,34.40
2023-04-12T21:02:23.163Z,34.81
2023-04-12T21:04:51.485Z,35.49
2023-04-12T21:07:20.255Z,35.29
2023-04-12T21:09:48.332Z,35.41
2023-04-12T21:12:17.654Z,35.51
2023-04-12T21:14:50.049Z,35.51
2023-04-12T21:17:22.413Z,35.44
2023-04-12T21:19:50.298Z,35.81
2023-04-12T21:22:18.230Z,35.23
2023-04-12T21:24:45.586Z,35.63
2023-04-12T21:27:14.605Z,36.30
2023-04-12T21:29:42.338Z,36.43
2023-04-12T21:32:09.791Z,36.48
2023-04-12T21:34:37.438Z,35.98
2023-04-12T21:37:05.493Z,35.80
2023-04-12T21:39:33.259Z,35.91
2023-04-12T21:42:01.641Z,36.45
2023-04-12T21:44:30.859Z,36.20
2023-04-12T21:46:58.260Z,36.36
2023-04-12T21:49:25.688Z,36.16
2023-04-12T21:51:56.923Z,38.20
2023-04-12T21:54:24.309Z,37.20
2023-04-12T21:56:51.682Z,37.59
2023-04-12T21:59:19.293Z,37.06
2023-04-12T22:01:46.844Z,37.00
2023-04-12T22:04:14.552Z,37.63
2023-04-12T22:06:44.542Z,38.89
2023-04-12T22:09:11.905Z,37.85
2023-04-12T22:11:39.538Z,38.35
2023-04-12T22:14:07.068Z,37.83
2023-04-12T22:16:34.796Z,37.76
2023-04-12T22:19:02.661Z,37.51
2023-04-12T22:21:30.862Z,37.83
2023-04-12T22:23:58.890Z,38.26
2023-04-12T22:26:26.859Z,37.83
2023-04-12T22:28:54.294Z,37.32
2023-04-12T22:31:22.976Z,37.19
2023-04-12T22:33:54.998Z,37.58
2023-04-12T22:36:28.580Z,37.25
2023-04-12T22:38:57.345Z,37.30
2023-04-12T22:41:28.283Z,37.48
2023-04-12T22:44:01.357Z,37.30
2023-04-12T22:46:32.959Z,37.80
2023-04-12T22:49:04.696Z,37.80
2023-04-12T22:51:32.596Z,38.00
2023-04-12T22:54:00.444Z,37.50
2023-04-12T22:56:29.230Z,38.02
2023-04-12T22:58:56.970Z,37.91
2023-04-12T23:01:25.205Z,38.03
2023-04-12T23:03:52.664Z,37.94
2023-04-12T23:06:20.586Z,37.85
2023-04-12T23:08:49.650Z,37.81
2023-04-12T23:11:17.205Z,37.46
2023-04-12T23:13:44.930Z,37.82
2023-04-12T23:16:12.434Z,37.82
2023-04-12T23:18:39.853Z,37.60
2023-04-12T23:21:11.108Z,37.76
2023-04-12T23:23:38.617Z,37.51
2023-04-12T23:26:06.236Z,38.37
2023-04-12T23:28:34.330Z,38.58
2023-04-12T23:31:01.757Z,38.80
2023-04-12T23:33:29.162Z,38.79
2023-04-12T23:35:57.100Z,40.17
2023-04-12T23:38:32.010Z,40.11
2023-04-12T23:41:00.534Z,39.81
2023-04-12T23:43:28.381Z,39.08
2023-04-12T23:45:56.552Z,39.35
2023-04-12T23:48:24.923Z,38.98
2023-04-12T23:50:52.305Z,39.01
2023-04-12T23:53:20.554Z,38.66
2023-04-12T23:55:51.269Z,38.82
2023-04-12T23:58:19.554Z,38.54
